Terminal Aerodrome Forecast
Issued by NWS

Home | Current Version | Previous Version | Text Only | Print | Product List | Glossary On
Versions: 1 2 3 4 5 6 7 8 9 10 11 12 13 14 15 16 17 18 19 20 21
000
FTUS43 KDLH 312300 RRA
TAFHYR
TAF
KHYR 312342Z 0100/0124 05008KT P6SM SKC
     FM010300 05010KT P6SM BKN025 OVC100
     FM010800 06008KT P6SM BKN025 OVC100
      TEMPO 0109/0113 6SM -SN OVC018
     FM011500 03010KT P6SM SCT025 OVC110=

USA.gov is the U.S. government's official web portal to all federal, state and local government web resources and services.